createdAt,value
2022-09-23T00:01:16.796Z,14.23
2022-09-23T00:03:47.391Z,15.32
2022-09-23T00:06:17.478Z,20.10
2022-09-23T00:08:44.788Z,14.18
2022-09-23T00:11:17.698Z,15.68
2022-09-23T00:13:46.724Z,16.40
2022-09-23T00:16:16.982Z,15.32
2022-09-23T00:18:44.261Z,17.25
2022-09-23T00:21:13.559Z,14.88
2022-09-23T00:23:42.890Z,14.65
2022-09-23T00:26:12.782Z,15.10
2022-09-23T00:28:39.573Z,14.43
2022-09-23T00:31:08.656Z,13.48
2022-09-23T00:33:35.322Z,17.80
2022-09-23T00:36:05.700Z,12.73
2022-09-23T00:38:33.895Z,14.18
2022-09-23T00:41:00.945Z,13.30
2022-09-23T00:43:48.935Z,13.85
2022-09-23T00:46:37.437Z,17.95
2022-09-23T00:49:10.903Z,15.63
2022-09-23T00:51:41.372Z,13.05
2022-09-23T00:54:09.189Z,11.48
2022-09-23T00:56:38.677Z,15.52
2022-09-23T00:59:09.655Z,15.50
2022-09-23T01:01:38.205Z,15.63
2022-09-23T01:04:07.196Z,18.00
2022-09-23T01:06:34.355Z,14.77
2022-09-23T01:09:02.319Z,16.23
2022-09-23T01:11:40.604Z,14.20
2022-09-23T01:14:20.247Z,16.35
2022-09-23T01:16:59.144Z,13.52
2022-09-23T01:19:36.337Z,12.55
2022-09-23T01:22:09.167Z,15.80
2022-09-23T01:24:54.843Z,16.27
2022-09-23T01:27:34.298Z,15.10
2022-09-23T01:30:16.664Z,17.45
2022-09-23T01:32:43.440Z,13.95
2022-09-23T01:35:22.592Z,15.75
2022-09-23T01:38:05.128Z,16.05
2022-09-23T01:40:59.791Z,16.77
2022-09-23T01:43:39.000Z,16.15
2022-09-23T01:46:16.495Z,16.13
2022-09-23T01:48:53.801Z,13.85
2022-09-23T01:51:40.575Z,18.35
2022-09-23T01:54:31.006Z,15.82
2022-09-23T01:57:09.718Z,12.55
2022-09-23T01:59:41.511Z,16.10
2022-09-23T02:02:11.583Z,15.10
2022-09-23T02:05:04.172Z,18.98
2022-09-23T02:07:42.217Z,14.57
2022-09-23T02:10:15.350Z,17.20
2022-09-23T02:12:46.903Z,18.17
2022-09-23T02:15:24.862Z,16.80
2022-09-23T02:17:56.186Z,16.20
2022-09-23T02:20:29.941Z,15.23
2022-09-23T02:23:03.709Z,14.23
2022-09-23T02:28:17.003Z,14.60
2022-09-23T02:30:52.016Z,17.58
2022-09-23T02:33:28.850Z,14.95
2022-09-23T02:36:06.317Z,14.23
2022-09-23T02:38:50.778Z,13.23
2022-09-23T02:41:37.188Z,14.07
2022-09-23T02:44:09.031Z,12.45
2022-09-23T02:46:37.014Z,12.27
2022-09-23T02:49:21.920Z,14.90
2022-09-23T02:51:49.169Z,13.88
2022-09-23T02:54:22.804Z,15.25
2022-09-23T02:56:49.807Z,16.67
2022-09-23T02:59:20.808Z,16.10
2022-09-23T03:02:09.389Z,14.48
2022-09-23T03:04:58.554Z,17.27
2022-09-23T03:07:44.507Z,15.82
2022-09-23T03:10:22.945Z,15.90
2022-09-23T03:13:02.022Z,14.25
2022-09-23T03:15:42.710Z,18.58
2022-09-23T03:18:31.672Z,16.90
2022-09-23T03:21:09.934Z,13.98
2022-09-23T03:23:40.015Z,13.38
2022-09-23T03:26:14.720Z,17.15
2022-09-23T03:28:44.868Z,15.43
2022-09-23T03:31:13.950Z,23.83
2022-09-23T03:33:45.399Z,19.88
2022-09-23T03:36:33.596Z,22.35
2022-09-23T03:39:08.966Z,25.50
2022-09-23T03:41:42.073Z,22.23
2022-09-23T03:44:10.974Z,28.75
2022-09-23T03:46:37.933Z,24.08
2022-09-23T03:49:16.436Z,26.02
2022-09-23T03:51:44.753Z,23.58
2022-09-23T03:54:12.317Z,25.67
2022-09-23T03:56:39.324Z,24.38
2022-09-23T03:59:06.163Z,26.27
2022-09-23T04:01:33.051Z,27.40
2022-09-23T04:04:00.166Z,26.02
2022-09-23T04:06:27.114Z,27.42
2022-09-23T04:08:53.902Z,31.02
2022-09-23T04:11:20.458Z,28.45
2022-09-23T04:13:47.213Z,23.38
2022-09-23T04:16:14.159Z,25.70
2022-09-23T04:18:40.869Z,25.13
2022-09-23T04:21:07.487Z,22.73
2022-09-23T04:23:34.091Z,23.10
2022-09-23T04:26:00.754Z,19.70
2022-09-23T04:28:27.656Z,22.90
2022-09-23T04:30:56.626Z,21.45
2022-09-23T04:33:24.585Z,18.75
2022-09-23T04:35:52.412Z,21.65
2022-09-23T04:38:19.560Z,18.90
2022-09-23T04:40:46.262Z,21.63
2022-09-23T04:43:15.784Z,16.70
2022-09-23T04:45:43.554Z,16.45
2022-09-23T04:48:11.329Z,22.30
2022-09-23T04:50:38.367Z,20.23
2022-09-23T04:53:05.290Z,16.65
2022-09-23T04:55:32.216Z,18.20
2022-09-23T04:57:58.992Z,16.90
2022-09-23T05:00:28.611Z,17.38
2022-09-23T05:02:55.523Z,16.30
2022-09-23T05:05:23.665Z,17.08
2022-09-23T05:07:51.341Z,17.67
2022-09-23T05:10:18.331Z,15.77
2022-09-23T05:12:45.630Z,17.95
2022-09-23T05:15:16.094Z,17.55
2022-09-23T05:17:43.289Z,18.08
2022-09-23T05:20:13.704Z,15.93
2022-09-23T05:22:40.436Z,14.88
2022-09-23T05:25:07.465Z,18.58
2022-09-23T05:27:34.423Z,17.20
2022-09-23T05:30:01.930Z,16.85
2022-09-23T05:32:28.525Z,16.10
2022-09-23T05:34:55.753Z,14.63
2022-09-23T05:37:23.049Z,18.52
2022-09-23T05:39:53.136Z,14.85
2022-09-23T05:42:20.945Z,15.60
2022-09-23T05:44:47.912Z,16.48
2022-09-23T05:47:14.562Z,16.08
2022-09-23T05:49:58.528Z,16.17
2022-09-23T05:52:26.649Z,18.75
2022-09-23T05:54:53.848Z,14.43
2022-09-23T05:57:21.412Z,17.75
2022-09-23T05:59:47.970Z,15.40
2022-09-23T06:02:15.225Z,17.55
2022-09-23T06:04:42.706Z,18.13
2022-09-23T06:07:09.879Z,19.85
2022-09-23T06:09:37.018Z,13.43
2022-09-23T06:12:06.272Z,18.48
2022-09-23T06:14:32.809Z,16.27
2022-09-23T06:16:59.507Z,15.07
2022-09-23T06:19:26.169Z,16.60
2022-09-23T06:21:53.048Z,15.15
2022-09-23T06:24:23.758Z,17.25
2022-09-23T06:26:52.617Z,18.80
2022-09-23T06:29:19.354Z,16.15
2022-09-23T06:31:45.945Z,13.90
2022-09-23T06:34:14.446Z,16.02
2022-09-23T06:36:45.416Z,15.23
2022-09-23T06:39:16.201Z,16.05
2022-09-23T06:41:45.035Z,17.80
2022-09-23T06:44:15.726Z,17.08
2022-09-23T06:46:43.136Z,13.70
2022-09-23T06:49:11.072Z,15.25
2022-09-23T06:51:37.645Z,13.70
2022-09-23T06:54:04.648Z,15.48
2022-09-23T06:56:36.148Z,17.08
2022-09-23T06:59:06.352Z,14.65
2022-09-23T07:01:33.410Z,16.95
2022-09-23T07:04:01.743Z,14.70
2022-09-23T07:06:28.405Z,12.70
2022-09-23T07:08:55.052Z,15.23
2022-09-23T07:11:22.563Z,15.35
2022-09-23T07:13:49.786Z,13.02
2022-09-23T07:16:16.473Z,12.15
2022-09-23T07:18:43.229Z,16.27
2022-09-23T07:21:15.088Z,14.18
2022-09-23T07:23:42.914Z,13.30
2022-09-23T07:26:10.242Z,14.65
2022-09-23T07:28:38.327Z,13.95
2022-09-23T07:31:10.543Z,13.70
2022-09-23T07:33:39.803Z,10.32
2022-09-23T07:36:13.314Z,13.05
2022-09-23T07:38:44.423Z,29.67
2022-09-23T07:41:15.212Z,15.45
2022-09-23T07:43:41.802Z,17.08
2022-09-23T07:46:16.099Z,12.98
2022-09-23T07:48:44.358Z,11.82
2022-09-23T07:51:16.460Z,12.27
2022-09-23T07:53:43.275Z,11.20
2022-09-23T07:56:10.503Z,9.73
2022-09-23T07:58:37.018Z,10.82
2022-09-23T08:01:05.717Z,10.18
2022-09-23T08:03:32.567Z,12.48
2022-09-23T08:06:10.003Z,12.30
2022-09-23T08:08:40.725Z,10.57
2022-09-23T08:11:10.201Z,13.35
2022-09-23T08:13:37.270Z,12.85
2022-09-23T08:16:04.481Z,10.55
2022-09-23T08:18:31.300Z,10.38
2022-09-23T08:20:59.346Z,10.48
2022-09-23T08:23:26.139Z,14.77
2022-09-23T08:26:03.826Z,12.13
2022-09-23T08:28:33.771Z,11.90
2022-09-23T08:31:00.998Z,12.40
2022-09-23T08:33:27.957Z,13.02
2022-09-23T08:36:00.551Z,15.38
2022-09-23T08:38:27.658Z,10.67
2022-09-23T08:41:05.682Z,14.68
2022-09-23T08:43:35.963Z,15.65
2022-09-23T08:46:05.785Z,14.27
2022-09-23T08:48:38.593Z,13.73
2022-09-23T08:51:08.477Z,20.60
2022-09-23T08:53:38.314Z,15.50
2022-09-23T08:56:20.062Z,13.00
2022-09-23T08:58:54.433Z,10.13
2022-09-23T09:01:28.469Z,12.18
2022-09-23T09:04:01.505Z,9.93
2022-09-23T09:06:52.258Z,11.77
2022-09-23T09:09:37.083Z,13.00
2022-09-23T09:15:02.571Z,8.20
2022-09-23T09:17:33.029Z,10.05
2022-09-23T09:20:05.919Z,9.00
2022-09-23T09:22:38.900Z,9.30
2022-09-23T09:25:18.638Z,9.80
2022-09-23T09:27:46.325Z,9.10
2022-09-23T09:30:17.178Z,9.75
2022-09-23T09:32:52.302Z,6.35
2022-09-23T09:35:23.231Z,8.70
2022-09-23T09:37:49.787Z,8.52
2022-09-23T09:40:17.558Z,8.25
2022-09-23T09:42:49.628Z,11.93
2022-09-23T09:45:57.808Z,12.30
2022-09-23T09:48:45.479Z,14.73
2022-09-23T09:51:21.794Z,12.38
2022-09-23T09:53:51.907Z,11.85
2022-09-23T09:56:34.377Z,9.48
2022-09-23T09:59:08.218Z,11.30
2022-09-23T10:01:35.650Z,11.55
2022-09-23T10:04:20.583Z,6.93
2022-09-23T10:07:14.309Z,8.68
2022-09-23T10:09:49.298Z,12.13
2022-09-23T10:12:19.245Z,8.25
2022-09-23T10:14:51.302Z,10.88
2022-09-23T10:17:21.503Z,8.55
2022-09-23T10:19:58.818Z,8.98
2022-09-23T10:22:33.485Z,10.60
2022-09-23T10:25:07.407Z,9.80
2022-09-23T10:27:36.702Z,12.25
2022-09-23T10:30:30.061Z,10.27
2022-09-23T10:32:57.213Z,10.25
2022-09-23T10:35:26.631Z,8.55
2022-09-23T10:37:53.857Z,10.93
2022-09-23T10:40:48.813Z,12.57
2022-09-23T10:44:00.196Z,11.88
2022-09-23T10:46:39.018Z,8.65
2022-09-23T10:49:31.063Z,9.70
2022-09-23T10:52:22.923Z,12.10
2022-09-23T10:55:07.150Z,8.50
2022-09-23T10:57:46.443Z,9.80
2022-09-23T11:00:32.092Z,10.70
2022-09-23T11:03:34.678Z,10.27
2022-09-23T11:06:04.207Z,8.77
2022-09-23T11:09:08.540Z,10.55
2022-09-23T11:11:44.250Z,6.63
2022-09-23T11:14:38.792Z,10.73
2022-09-23T11:17:45.915Z,10.00
2022-09-23T11:20:23.109Z,6.90
2022-09-23T11:23:14.317Z,8.80
2022-09-23T11:26:25.954Z,11.27
2022-09-23T11:29:04.233Z,7.80
2022-09-23T11:31:40.582Z,10.75
2022-09-23T11:34:28.700Z,10.75
2022-09-23T11:37:07.242Z,8.68
2022-09-23T11:39:44.038Z,6.82
2022-09-23T11:42:19.663Z,7.70
2022-09-23T11:44:54.040Z,8.52
2022-09-23T11:47:39.820Z,9.18
2022-09-23T11:50:20.039Z,6.22
2022-09-23T11:52:59.080Z,6.70
2022-09-23T11:55:32.836Z,6.47
2022-09-23T11:58:12.214Z,6.40
2022-09-23T12:00:59.337Z,10.48
2022-09-23T12:03:48.196Z,11.25
2022-09-23T12:06:20.384Z,12.48
2022-09-23T12:08:53.697Z,7.38
2022-09-23T12:14:07.453Z,7.65
2022-09-23T12:16:40.368Z,6.88
2022-09-23T12:19:34.831Z,6.60
2022-09-23T12:22:24.798Z,9.48
2022-09-23T12:25:04.528Z,8.43
2022-09-23T12:27:45.956Z,7.35
2022-09-23T12:30:17.798Z,10.88
2022-09-23T12:32:44.973Z,10.48
2022-09-23T12:35:25.162Z,11.63
2022-09-23T12:37:53.247Z,6.53
2022-09-23T12:40:32.842Z,11.98
2022-09-23T12:43:01.200Z,14.63
2022-09-23T12:45:32.607Z,12.25
2022-09-23T12:48:03.117Z,8.77
2022-09-23T12:50:50.818Z,7.45
2022-09-23T12:53:53.458Z,11.82
2022-09-23T12:56:26.465Z,11.30
2022-09-23T12:59:28.587Z,11.48
2022-09-23T13:01:56.090Z,9.63
2022-09-23T13:04:49.740Z,8.70
2022-09-23T13:07:21.936Z,10.80
2022-09-23T13:09:52.334Z,11.32
2022-09-23T13:12:28.193Z,10.48
2022-09-23T13:15:00.589Z,10.73
2022-09-23T13:17:33.101Z,10.70
2022-09-23T13:20:03.698Z,10.37
2022-09-23T13:23:04.034Z,16.00
2022-09-23T13:25:33.654Z,11.57
2022-09-23T13:28:12.507Z,8.98
2022-09-23T13:30:49.162Z,10.95
2022-09-23T13:33:24.173Z,10.38
2022-09-23T13:35:52.529Z,11.82
2022-09-23T13:38:19.005Z,14.18
2022-09-23T13:40:46.995Z,7.88
2022-09-23T13:43:40.346Z,8.50
2022-09-23T13:46:16.193Z,8.15
2022-09-23T13:48:45.307Z,11.15
2022-09-23T13:51:21.992Z,15.15
2022-09-23T13:53:58.186Z,13.82
2022-09-23T13:56:28.547Z,11.50
2022-09-23T13:59:23.429Z,10.77
2022-09-23T14:01:50.040Z,14.32
2022-09-23T14:04:26.076Z,11.30
2022-09-23T14:06:55.745Z,13.63
2022-09-23T14:09:27.463Z,14.88
2022-09-23T14:11:56.603Z,12.00
2022-09-23T14:14:23.801Z,12.25
2022-09-23T14:16:51.756Z,13.20
2022-09-23T14:19:21.408Z,8.95
2022-09-23T14:21:53.377Z,13.07
2022-09-23T14:24:29.610Z,11.32
2022-09-23T14:27:12.657Z,10.75
2022-09-23T14:29:42.076Z,10.25
2022-09-23T14:32:14.400Z,10.45
2022-09-23T14:34:42.810Z,15.20
2022-09-23T14:37:37.713Z,13.82
2022-09-23T14:40:11.240Z,9.95
2022-09-23T14:42:41.212Z,19.40
2022-09-23T14:45:13.946Z,12.20
2022-09-23T14:47:45.803Z,12.87
2022-09-23T14:50:36.823Z,15.07
2022-09-23T14:53:04.882Z,13.32
2022-09-23T14:55:31.805Z,10.90
2022-09-23T14:58:04.735Z,12.43
2022-09-23T15:00:31.866Z,12.02
2022-09-23T15:03:13.032Z,14.18
2022-09-23T15:05:46.305Z,12.35
2022-09-23T15:08:19.196Z,12.23
2022-09-23T15:10:46.249Z,11.48
2022-09-23T15:13:17.684Z,12.60
2022-09-23T15:15:44.631Z,13.63
2022-09-23T15:18:18.742Z,15.23
2022-09-23T15:20:54.783Z,13.60
2022-09-23T15:23:49.169Z,18.58
2022-09-23T15:26:19.986Z,12.65
2022-09-23T15:28:48.319Z,16.33
2022-09-23T15:31:16.797Z,15.63
2022-09-23T15:33:47.869Z,11.23
2022-09-23T15:36:19.052Z,12.88
2022-09-23T15:38:46.686Z,12.02
2022-09-23T15:41:14.408Z,13.60
2022-09-23T15:43:41.828Z,15.50
2022-09-23T15:46:22.085Z,21.85
2022-09-23T15:48:59.024Z,15.23
2022-09-23T15:51:27.591Z,12.20
2022-09-23T15:53:55.462Z,17.83
2022-09-23T15:56:22.959Z,15.20
2022-09-23T15:58:50.426Z,12.63
2022-09-23T16:01:31.677Z,17.60
2022-09-23T16:04:01.244Z,13.57
2022-09-23T16:06:28.114Z,10.68
2022-09-23T16:08:55.324Z,14.55
2022-09-23T16:11:32.767Z,12.20
2022-09-23T16:14:00.842Z,16.90
2022-09-23T16:16:28.043Z,15.25
2022-09-23T16:18:55.321Z,12.88
2022-09-23T16:21:28.161Z,14.50
2022-09-23T16:23:57.267Z,13.27
2022-09-23T16:26:30.352Z,13.15
2022-09-23T16:28:58.406Z,13.82
2022-09-23T16:31:26.842Z,17.33
2022-09-23T16:33:53.696Z,12.00
2022-09-23T16:36:31.026Z,15.25
2022-09-23T16:39:02.872Z,11.45
2022-09-23T16:41:34.455Z,11.68
2022-09-23T16:44:04.516Z,13.70
2022-09-23T16:46:31.702Z,16.30
2022-09-23T16:49:00.389Z,11.35
2022-09-23T16:51:30.606Z,13.05
2022-09-23T16:53:59.503Z,14.45
2022-09-23T16:56:29.097Z,14.07
2022-09-23T16:58:56.875Z,15.70
2022-09-23T17:01:44.784Z,21.17
2022-09-23T17:04:12.760Z,13.15
2022-09-23T17:06:50.146Z,14.80
2022-09-23T17:09:20.219Z,13.95
2022-09-23T17:11:53.089Z,15.20
2022-09-23T17:14:20.444Z,16.38
2022-09-23T17:16:47.434Z,13.02
2022-09-23T17:19:14.117Z,16.10
2022-09-23T17:21:40.917Z,15.98
2022-09-23T17:24:07.578Z,14.23
2022-09-23T17:26:34.494Z,18.00
2022-09-23T17:29:02.283Z,16.65
2022-09-23T17:31:30.563Z,20.65
2022-09-23T17:33:57.592Z,16.15
2022-09-23T17:36:24.559Z,20.60
2022-09-23T17:38:54.205Z,17.08
2022-09-23T17:41:21.862Z,14.18
2022-09-23T17:43:55.469Z,17.00
2022-09-23T17:46:23.298Z,13.80
2022-09-23T17:48:53.126Z,16.60
2022-09-23T17:51:19.939Z,13.88
2022-09-23T17:53:48.305Z,14.32
2022-09-23T17:56:15.264Z,19.33
2022-09-23T17:58:43.529Z,13.68
2022-09-23T18:01:12.555Z,19.40
2022-09-23T18:03:43.389Z,18.23
2022-09-23T18:06:12.988Z,16.23
2022-09-23T18:08:42.047Z,15.60
2022-09-23T18:11:15.271Z,13.77
2022-09-23T18:13:42.438Z,16.77
2022-09-23T18:16:09.421Z,16.60
2022-09-23T18:18:36.472Z,17.88
2022-09-23T18:21:04.794Z,14.18
2022-09-23T18:23:32.609Z,15.10
2022-09-23T18:25:59.679Z,13.75
2022-09-23T18:28:32.666Z,13.20
2022-09-23T18:31:01.633Z,12.07
2022-09-23T18:33:31.125Z,13.25
2022-09-23T18:36:03.467Z,13.02
2022-09-23T18:38:33.704Z,14.50
2022-09-23T18:41:01.469Z,12.43
2022-09-23T18:43:37.555Z,16.00
2022-09-23T18:46:14.603Z,16.05
2022-09-23T18:49:01.973Z,15.27
2022-09-23T18:51:30.335Z,16.95
2022-09-23T18:53:59.405Z,16.80
2022-09-23T18:56:29.650Z,17.27
2022-09-23T18:58:57.193Z,19.92
2022-09-23T19:01:24.344Z,23.83
2022-09-23T19:03:56.195Z,20.33
2022-09-23T19:06:24.101Z,21.75
2022-09-23T19:08:53.096Z,23.20
2022-09-23T19:11:21.165Z,21.60
2022-09-23T19:13:56.421Z,20.52
2022-09-23T19:16:26.303Z,19.83
2022-09-23T19:18:53.825Z,24.83
2022-09-23T19:21:22.579Z,24.50
2022-09-23T19:24:08.184Z,23.70
2022-09-23T19:26:39.076Z,25.63
2022-09-23T19:29:08.313Z,31.33
2022-09-23T19:31:43.409Z,25.60
2022-09-23T19:34:16.225Z,27.77
2022-09-23T19:36:45.567Z,25.15
2022-09-23T19:39:22.696Z,25.70
2022-09-23T19:41:50.460Z,30.95
2022-09-23T19:44:17.550Z,23.00
2022-09-23T19:46:51.686Z,28.88
2022-09-23T19:49:21.675Z,29.23
2022-09-23T19:51:48.521Z,26.33
2022-09-23T19:54:21.662Z,31.52
2022-09-23T19:56:49.671Z,32.33
2022-09-23T19:59:19.172Z,27.15
2022-09-23T20:01:48.072Z,25.63
2022-09-23T20:04:15.830Z,26.42
2022-09-23T20:06:43.181Z,25.13
2022-09-23T20:09:10.434Z,29.75
2022-09-23T20:11:37.751Z,25.08
2022-09-23T20:14:06.252Z,27.67
2022-09-23T20:16:35.770Z,25.98
2022-09-23T20:19:04.312Z,27.90
2022-09-23T20:21:31.645Z,26.20
2022-09-23T20:23:58.604Z,26.85
2022-09-23T20:26:43.992Z,28.73
2022-09-23T20:29:11.467Z,28.23
2022-09-23T20:31:40.249Z,29.95
2022-09-23T20:34:08.199Z,30.52
2022-09-23T20:36:36.240Z,31.10
2022-09-23T20:39:09.631Z,30.10
2022-09-23T20:41:38.995Z,25.92
2022-09-23T20:44:09.753Z,25.48
2022-09-23T20:46:36.809Z,27.15
2022-09-23T20:49:04.654Z,28.00
2022-09-23T20:51:33.406Z,25.20
2022-09-23T20:54:01.250Z,21.77
2022-09-23T20:56:29.040Z,26.88
2022-09-23T20:59:00.511Z,24.65
2022-09-23T21:01:27.824Z,24.73
2022-09-23T21:03:55.943Z,21.02
2022-09-23T21:06:26.156Z,23.63
2022-09-23T21:08:54.656Z,24.27
2022-09-23T21:11:22.033Z,21.80
2022-09-23T21:13:53.868Z,23.00
2022-09-23T21:16:25.280Z,23.58
2022-09-23T21:18:52.812Z,21.83
2022-09-23T21:21:21.961Z,25.80
2022-09-23T21:23:49.567Z,22.48
2022-09-23T21:26:26.541Z,20.98
2022-09-23T21:28:57.635Z,21.65
2022-09-23T21:31:33.836Z,21.13
2022-09-23T21:34:06.422Z,20.52
2022-09-23T21:36:38.247Z,22.38
2022-09-23T21:39:06.783Z,22.50
2022-09-23T21:41:34.068Z,22.73
2022-09-23T21:44:04.413Z,22.52
2022-09-23T21:46:33.799Z,25.08
2022-09-23T21:49:03.300Z,22.83
2022-09-23T21:51:41.120Z,26.00
2022-09-23T21:54:13.599Z,24.20
2022-09-23T21:56:40.416Z,22.90
2022-09-23T21:59:08.111Z,24.77
2022-09-23T22:01:38.048Z,26.98
2022-09-23T22:04:14.689Z,26.58
2022-09-23T22:06:41.743Z,25.00
2022-09-23T22:09:12.150Z,23.95
2022-09-23T22:11:58.365Z,25.30
2022-09-23T22:14:26.207Z,23.52
2022-09-23T22:16:57.878Z,25.88
2022-09-23T22:19:27.067Z,26.90
2022-09-23T22:21:55.956Z,30.23
2022-09-23T22:24:23.130Z,27.73
2022-09-23T22:26:49.894Z,28.50
2022-09-23T22:29:35.249Z,27.55
2022-09-23T22:32:22.698Z,30.50
2022-09-23T22:34:52.079Z,31.38
2022-09-23T22:37:25.480Z,31.20
2022-09-23T22:39:52.122Z,28.98
2022-09-23T22:42:21.464Z,31.27
2022-09-23T22:44:48.728Z,25.85
2022-09-23T22:47:20.527Z,30.83
2022-09-23T22:49:47.938Z,28.88
2022-09-23T22:52:16.170Z,34.95
2022-09-23T22:54:43.450Z,33.72
2022-09-23T22:57:10.318Z,32.85
2022-09-23T22:59:39.799Z,37.88
2022-09-23T23:02:08.194Z,36.13
2022-09-23T23:04:37.134Z,41.72
2022-09-23T23:07:06.021Z,39.95
2022-09-23T23:09:32.933Z,39.50
2022-09-23T23:12:00.065Z,37.75
2022-09-23T23:14:28.099Z,36.70
2022-09-23T23:16:55.182Z,38.28
2022-09-23T23:19:22.091Z,36.20
2022-09-23T23:21:50.477Z,33.80
2022-09-23T23:24:21.774Z,31.48
2022-09-23T23:26:49.560Z,33.63
2022-09-23T23:29:18.115Z,27.77
2022-09-23T23:31:45.545Z,28.90
2022-09-23T23:34:16.224Z,28.02
2022-09-23T23:36:43.752Z,28.50
2022-09-23T23:39:12.347Z,27.08
2022-09-23T23:41:42.508Z,25.38
2022-09-23T23:44:09.358Z,26.95
2022-09-23T23:46:37.424Z,24.35
2022-09-23T23:49:04.847Z,23.42
2022-09-23T23:51:32.171Z,23.98
2022-09-23T23:53:59.488Z,25.67
2022-09-23T23:56:27.583Z,23.88
2022-09-23T23:59:03.976Z,20.85
